sensor_id;sensor_type;location;lat;lon;timestamp;P1;durP1;ratioP1;P2;durP2;ratioP2
52902;SDS011;38765;53.176;7.090;2022-08-19T06:10:12;1.00;;;1.00;;
52902;SDS011;38765;53.176;7.090;2022-08-19T06:12:48;1.10;;;1.10;;
52902;SDS011;38765;53.176;7.090;2022-08-19T06:57:43;1.40;;;1.30;;
52902;SDS011;38765;53.176;7.090;2022-08-19T07:00:11;1.50;;;1.40;;
52902;SDS011;38765;53.176;7.090;2022-08-19T07:02:56;1.50;;;1.40;;
52902;SDS011;38765;53.176;7.090;2022-08-19T07:09:30;1.50;;;1.40;;
52902;SDS011;38765;53.176;7.090;2022-08-19T07:12:16;1.50;;;1.40;;
52902;SDS011;38765;53.176;7.090;2022-08-19T07:19:05;1.50;;;1.40;;
52902;SDS011;38765;53.176;7.090;2022-08-19T07:21:53;1.60;;;1.50;;
52902;SDS011;38765;53.176;7.090;2022-08-19T07:25:13;1.70;;;1.60;;
52902;SDS011;38765;53.176;7.090;2022-08-19T07:27:49;1.60;;;1.50;;
52902;SDS011;38765;53.176;7.090;2022-08-19T07:30:18;1.80;;;1.70;;
52902;SDS011;38765;53.176;7.090;2022-08-19T07:32:54;1.80;;;1.70;;
52902;SDS011;38765;53.176;7.090;2022-08-19T07:38:15;1.63;;;1.52;;
52902;SDS011;38765;53.176;7.090;2022-08-19T07:40:41;1.70;;;1.60;;
52902;SDS011;38765;53.176;7.090;2022-08-19T07:43:10;1.70;;;1.60;;
52902;SDS011;38765;53.176;7.090;2022-08-19T07:45:50;1.70;;;1.60;;
52902;SDS011;38765;53.176;7.090;2022-08-19T07:49:23;1.80;;;1.70;;
52902;SDS011;38765;53.176;7.090;2022-08-19T07:52:54;1.70;;;1.60;;
52902;SDS011;38765;53.176;7.090;2022-08-19T07:58:04;1.80;;;1.70;;
52902;SDS011;38765;53.176;7.090;2022-08-19T08:00:32;1.90;;;1.80;;
52902;SDS011;38765;53.176;7.090;2022-08-19T08:03:05;1.80;;;1.70;;
52902;SDS011;38765;53.176;7.090;2022-08-19T08:05:36;1.90;;;1.80;;
52902;SDS011;38765;53.176;7.090;2022-08-19T08:08:21;1.90;;;1.80;;
52902;SDS011;38765;53.176;7.090;2022-08-19T08:11:02;2.00;;;1.90;;
52902;SDS011;38765;53.176;7.090;2022-08-19T08:13:30;1.92;;;1.83;;
52902;SDS011;38765;53.176;7.090;2022-08-19T08:15:56;2.00;;;1.90;;
52902;SDS011;38765;53.176;7.090;2022-08-19T08:18:22;2.00;;;1.90;;
52902;SDS011;38765;53.176;7.090;2022-08-19T08:20:49;2.00;;;1.90;;
52902;SDS011;38765;53.176;7.090;2022-08-19T08:23:15;2.00;;;1.90;;
52902;SDS011;38765;53.176;7.090;2022-08-19T08:25:55;2.10;;;2.00;;
52902;SDS011;38765;53.176;7.090;2022-08-19T08:28:25;2.00;;;1.90;;
52902;SDS011;38765;53.176;7.090;2022-08-19T08:30:55;2.20;;;2.10;;
52902;SDS011;38765;53.176;7.090;2022-08-19T08:33:25;2.10;;;2.00;;
52902;SDS011;38765;53.176;7.090;2022-08-19T08:35:57;2.20;;;2.10;;
52902;SDS011;38765;53.176;7.090;2022-08-19T08:38:23;2.20;;;2.10;;
52902;SDS011;38765;53.176;7.090;2022-08-19T08:41:05;2.17;;;2.08;;
52902;SDS011;38765;53.176;7.090;2022-08-19T08:43:45;2.30;;;2.20;;
52902;SDS011;38765;53.176;7.090;2022-08-19T08:46:18;2.35;;;2.25;;
52902;SDS011;38765;53.176;7.090;2022-08-19T08:49:05;2.35;;;2.25;;
52902;SDS011;38765;53.176;7.090;2022-08-19T08:54:10;2.25;;;2.15;;
52902;SDS011;38765;53.176;7.090;2022-08-19T08:56:48;2.40;;;2.30;;
52902;SDS011;38765;53.176;7.090;2022-08-19T09:01:51;2.40;;;2.30;;
52902;SDS011;38765;53.176;7.090;2022-08-19T09:04:17;2.45;;;2.35;;
52902;SDS011;38765;53.176;7.090;2022-08-19T09:06:51;2.47;;;2.38;;
52902;SDS011;38765;53.176;7.090;2022-08-19T09:12:36;2.50;;;2.40;;
52902;SDS011;38765;53.176;7.090;2022-08-19T09:15:15;2.58;;;2.47;;
52902;SDS011;38765;53.176;7.090;2022-08-19T09:17:43;2.40;;;2.30;;
52902;SDS011;38765;53.176;7.090;2022-08-19T09:20:14;2.60;;;2.50;;
52902;SDS011;38765;53.176;7.090;2022-08-19T09:22:49;2.70;;;2.60;;
52902;SDS011;38765;53.176;7.090;2022-08-19T09:25:16;2.65;;;2.55;;
52902;SDS011;38765;53.176;7.090;2022-08-19T09:27:47;2.70;;;2.60;;
52902;SDS011;38765;53.176;7.090;2022-08-19T09:30:21;2.60;;;2.50;;
52902;SDS011;38765;53.176;7.090;2022-08-19T09:32:51;2.70;;;2.60;;
52902;SDS011;38765;53.176;7.090;2022-08-19T09:35:28;2.80;;;2.70;;
52902;SDS011;38765;53.176;7.090;2022-08-19T09:37:56;2.75;;;2.65;;
52902;SDS011;38765;53.176;7.090;2022-08-19T09:40:28;2.80;;;2.70;;
52902;SDS011;38765;53.176;7.090;2022-08-19T09:42:55;2.70;;;2.60;;
52902;SDS011;38765;53.176;7.090;2022-08-19T09:45:22;2.70;;;2.60;;
52902;SDS011;38765;53.176;7.090;2022-08-19T09:47:51;2.78;;;2.67;;
52902;SDS011;38765;53.176;7.090;2022-08-19T09:50:28;2.90;;;2.80;;
52902;SDS011;38765;53.176;7.090;2022-08-19T09:52:57;2.80;;;2.70;;
52902;SDS011;38765;53.176;7.090;2022-08-19T09:55:30;2.90;;;2.80;;
52902;SDS011;38765;53.176;7.090;2022-08-19T09:57:55;2.90;;;2.80;;
52902;SDS011;38765;53.176;7.090;2022-08-19T10:00:21;2.80;;;2.70;;
52902;SDS011;38765;53.176;7.090;2022-08-19T10:02:47;2.90;;;2.80;;
52902;SDS011;38765;53.176;7.090;2022-08-19T10:05:15;2.80;;;2.70;;
52902;SDS011;38765;53.176;7.090;2022-08-19T10:07:59;2.75;;;2.65;;
52902;SDS011;38765;53.176;7.090;2022-08-19T10:10:26;3.10;;;3.00;;
52902;SDS011;38765;53.176;7.090;2022-08-19T10:12:57;3.00;;;2.90;;
52902;SDS011;38765;53.176;7.090;2022-08-19T10:15:23;2.92;;;2.83;;
52902;SDS011;38765;53.176;7.090;2022-08-19T10:17:49;2.90;;;2.80;;
52902;SDS011;38765;53.176;7.090;2022-08-19T10:20:23;2.90;;;2.80;;
52902;SDS011;38765;53.176;7.090;2022-08-19T10:22:54;2.90;;;2.80;;
52902;SDS011;38765;53.176;7.090;2022-08-19T10:25:20;2.90;;;2.80;;
52902;SDS011;38765;53.176;7.090;2022-08-19T10:27:46;2.90;;;2.80;;
52902;SDS011;38765;53.176;7.090;2022-08-19T10:30:17;3.10;;;3.00;;
52902;SDS011;38765;53.176;7.090;2022-08-19T10:32:44;2.92;;;2.83;;
52902;SDS011;38765;53.176;7.090;2022-08-19T10:35:14;3.00;;;2.90;;
52902;SDS011;38765;53.176;7.090;2022-08-19T10:37:43;3.00;;;2.90;;
52902;SDS011;38765;53.176;7.090;2022-08-19T10:40:11;3.00;;;2.90;;
52902;SDS011;38765;53.176;7.090;2022-08-19T10:42:37;2.90;;;2.80;;
52902;SDS011;38765;53.176;7.090;2022-08-19T10:45:05;3.10;;;3.00;;
52902;SDS011;38765;53.176;7.090;2022-08-19T10:47:35;3.00;;;2.90;;
52902;SDS011;38765;53.176;7.090;2022-08-19T10:50:04;3.10;;;3.00;;
52902;SDS011;38765;53.176;7.090;2022-08-19T10:52:49;3.05;;;2.95;;
52902;SDS011;38765;53.176;7.090;2022-08-19T10:55:15;3.08;;;2.97;;
52902;SDS011;38765;53.176;7.090;2022-08-19T11:00:38;3.10;;;3.00;;
52902;SDS011;38765;53.176;7.090;2022-08-19T11:03:08;3.00;;;2.90;;
52902;SDS011;38765;53.176;7.090;2022-08-19T11:05:34;3.08;;;2.97;;
52902;SDS011;38765;53.176;7.090;2022-08-19T11:10:39;3.00;;;2.90;;
52902;SDS011;38765;53.176;7.090;2022-08-19T11:13:09;3.10;;;3.00;;
52902;SDS011;38765;53.176;7.090;2022-08-19T11:15:37;2.97;;;2.88;;
52902;SDS011;38765;53.176;7.090;2022-08-19T11:18:08;3.08;;;2.97;;
52902;SDS011;38765;53.176;7.090;2022-08-19T11:20:36;3.03;;;2.92;;
52902;SDS011;38765;53.176;7.090;2022-08-19T11:23:04;3.00;;;2.90;;
52902;SDS011;38765;53.176;7.090;2022-08-19T11:25:39;3.13;;;3.03;;
52902;SDS011;38765;53.176;7.090;2022-08-19T11:28:07;3.00;;;2.90;;
52902;SDS011;38765;53.176;7.090;2022-08-19T11:30:36;3.00;;;2.90;;
52902;SDS011;38765;53.176;7.090;2022-08-19T11:33:06;2.90;;;2.80;;
52902;SDS011;38765;53.176;7.090;2022-08-19T11:35:32;3.20;;;3.10;;
52902;SDS011;38765;53.176;7.090;2022-08-19T11:37:59;2.92;;;2.83;;
52902;SDS011;38765;53.176;7.090;2022-08-19T11:40:26;3.10;;;3.00;;
52902;SDS011;38765;53.176;7.090;2022-08-19T11:42:54;3.00;;;2.90;;
52902;SDS011;38765;53.176;7.090;2022-08-19T11:45:20;2.80;;;2.70;;
52902;SDS011;38765;53.176;7.090;2022-08-19T11:47:47;2.80;;;2.70;;
52902;SDS011;38765;53.176;7.090;2022-08-19T11:50:13;2.90;;;2.80;;
52902;SDS011;38765;53.176;7.090;2022-08-19T11:52:42;2.80;;;2.70;;
52902;SDS011;38765;53.176;7.090;2022-08-19T11:55:15;2.70;;;2.60;;
52902;SDS011;38765;53.176;7.090;2022-08-19T11:57:46;2.70;;;2.60;;
52902;SDS011;38765;53.176;7.090;2022-08-19T12:00:15;2.70;;;2.60;;
52902;SDS011;38765;53.176;7.090;2022-08-19T12:02:46;2.70;;;2.60;;
52902;SDS011;38765;53.176;7.090;2022-08-19T12:05:11;2.42;;;2.33;;
52902;SDS011;38765;53.176;7.090;2022-08-19T12:07:40;2.60;;;2.50;;
52902;SDS011;38765;53.176;7.090;2022-08-19T12:10:08;2.70;;;2.60;;
52902;SDS011;38765;53.176;7.090;2022-08-19T12:12:35;2.50;;;2.40;;
52902;SDS011;38765;53.176;7.090;2022-08-19T12:15:00;2.80;;;2.70;;
52902;SDS011;38765;53.176;7.090;2022-08-19T12:17:35;2.70;;;2.60;;
52902;SDS011;38765;53.176;7.090;2022-08-19T12:20:03;2.60;;;2.50;;
52902;SDS011;38765;53.176;7.090;2022-08-19T12:22:38;2.80;;;2.70;;
52902;SDS011;38765;53.176;7.090;2022-08-19T12:25:06;2.80;;;2.70;;
52902;SDS011;38765;53.176;7.090;2022-08-19T12:27:34;2.80;;;2.70;;
52902;SDS011;38765;53.176;7.090;2022-08-19T12:30:01;2.83;;;2.72;;
52902;SDS011;38765;53.176;7.090;2022-08-19T12:32:30;3.00;;;2.90;;
52902;SDS011;38765;53.176;7.090;2022-08-19T12:34:58;2.80;;;2.70;;
52902;SDS011;38765;53.176;7.090;2022-08-19T12:37:26;2.70;;;2.60;;
52902;SDS011;38765;53.176;7.090;2022-08-19T12:39:52;2.70;;;2.60;;
52902;SDS011;38765;53.176;7.090;2022-08-19T12:42:18;2.70;;;2.60;;
52902;SDS011;38765;53.176;7.090;2022-08-19T12:44:44;2.63;;;2.53;;
52902;SDS011;38765;53.176;7.090;2022-08-19T12:47:12;2.60;;;2.50;;
52902;SDS011;38765;53.176;7.090;2022-08-19T12:49:42;2.65;;;2.55;;
52902;SDS011;38765;53.176;7.090;2022-08-19T12:52:09;2.45;;;2.35;;
52902;SDS011;38765;53.176;7.090;2022-08-19T12:54:36;2.30;;;2.20;;
52902;SDS011;38765;53.176;7.090;2022-08-19T12:57:09;2.20;;;2.10;;
52902;SDS011;38765;53.176;7.090;2022-08-19T12:59:52;2.20;;;2.10;;
52902;SDS011;38765;53.176;7.090;2022-08-19T13:02:19;2.20;;;2.10;;
52902;SDS011;38765;53.176;7.090;2022-08-19T13:04:46;2.10;;;2.00;;
52902;SDS011;38765;53.176;7.090;2022-08-19T13:07:14;2.10;;;2.00;;
52902;SDS011;38765;53.176;7.090;2022-08-19T13:09:42;2.00;;;1.90;;
52902;SDS011;38765;53.176;7.090;2022-08-19T13:12:15;2.00;;;1.90;;
52902;SDS011;38765;53.176;7.090;2022-08-19T13:14:45;2.00;;;1.90;;
52902;SDS011;38765;53.176;7.090;2022-08-19T13:17:15;1.90;;;1.80;;
52902;SDS011;38765;53.176;7.090;2022-08-19T13:19:43;1.90;;;1.80;;
52902;SDS011;38765;53.176;7.090;2022-08-19T13:22:09;1.90;;;1.80;;
52902;SDS011;38765;53.176;7.090;2022-08-19T13:24:37;1.80;;;1.70;;
52902;SDS011;38765;53.176;7.090;2022-08-19T13:27:06;1.98;;;1.88;;
52902;SDS011;38765;53.176;7.090;2022-08-19T13:29:34;1.80;;;1.70;;
52902;SDS011;38765;53.176;7.090;2022-08-19T13:32:18;1.70;;;1.60;;
52902;SDS011;38765;53.176;7.090;2022-08-19T13:35:03;1.80;;;1.70;;
52902;SDS011;38765;53.176;7.090;2022-08-19T13:37:29;1.70;;;1.60;;
52902;SDS011;38765;53.176;7.090;2022-08-19T13:42:42;1.80;;;1.70;;
52902;SDS011;38765;53.176;7.090;2022-08-19T13:45:15;1.80;;;1.70;;
52902;SDS011;38765;53.176;7.090;2022-08-19T13:47:45;1.70;;;1.60;;
52902;SDS011;38765;53.176;7.090;2022-08-19T13:50:15;1.70;;;1.60;;
52902;SDS011;38765;53.176;7.090;2022-08-19T13:52:43;1.80;;;1.70;;
52902;SDS011;38765;53.176;7.090;2022-08-19T13:55:13;1.70;;;1.60;;
52902;SDS011;38765;53.176;7.090;2022-08-19T13:57:40;1.60;;;1.50;;
52902;SDS011;38765;53.176;7.090;2022-08-19T14:00:14;1.60;;;1.50;;
52902;SDS011;38765;53.176;7.090;2022-08-19T14:02:46;1.60;;;1.50;;
52902;SDS011;38765;53.176;7.090;2022-08-19T14:05:15;1.60;;;1.50;;
52902;SDS011;38765;53.176;7.090;2022-08-19T14:07:44;1.60;;;1.50;;
52902;SDS011;38765;53.176;7.090;2022-08-19T14:10:19;1.60;;;1.50;;
52902;SDS011;38765;53.176;7.090;2022-08-19T14:12:49;1.60;;;1.50;;
52902;SDS011;38765;53.176;7.090;2022-08-19T14:15:20;1.60;;;1.50;;
52902;SDS011;38765;53.176;7.090;2022-08-19T14:17:48;1.60;;;1.50;;
52902;SDS011;38765;53.176;7.090;2022-08-19T14:20:21;1.67;;;1.58;;
52902;SDS011;38765;53.176;7.090;2022-08-19T14:22:48;1.50;;;1.40;;
52902;SDS011;38765;53.176;7.090;2022-08-19T14:25:18;1.70;;;1.60;;
52902;SDS011;38765;53.176;7.090;2022-08-19T14:27:46;1.50;;;1.40;;
52902;SDS011;38765;53.176;7.090;2022-08-19T14:30:14;1.70;;;1.60;;
52902;SDS011;38765;53.176;7.090;2022-08-19T14:32:43;1.67;;;1.58;;
52902;SDS011;38765;53.176;7.090;2022-08-19T14:35:12;1.60;;;1.50;;
52902;SDS011;38765;53.176;7.090;2022-08-19T14:37:49;1.60;;;1.50;;
52902;SDS011;38765;53.176;7.090;2022-08-19T14:40:26;1.60;;;1.50;;
52902;SDS011;38765;53.176;7.090;2022-08-19T14:42:56;1.60;;;1.50;;
52902;SDS011;38765;53.176;7.090;2022-08-19T14:45:27;1.50;;;1.40;;
52902;SDS011;38765;53.176;7.090;2022-08-19T14:47:56;1.50;;;1.40;;
52902;SDS011;38765;53.176;7.090;2022-08-19T14:50:22;1.50;;;1.40;;
52902;SDS011;38765;53.176;7.090;2022-08-19T14:52:56;1.40;;;1.30;;
52902;SDS011;38765;53.176;7.090;2022-08-19T14:55:29;1.40;;;1.30;;
52902;SDS011;38765;53.176;7.090;2022-08-19T14:57:56;1.35;;;1.25;;
52902;SDS011;38765;53.176;7.090;2022-08-19T15:00:26;1.30;;;1.20;;
52902;SDS011;38765;53.176;7.090;2022-08-19T15:03:05;1.30;;;1.20;;
52902;SDS011;38765;53.176;7.090;2022-08-19T15:05:31;1.30;;;1.20;;
52902;SDS011;38765;53.176;7.090;2022-08-19T15:10:29;1.30;;;1.20;;
52902;SDS011;38765;53.176;7.090;2022-08-19T15:12:58;1.30;;;1.20;;
52902;SDS011;38765;53.176;7.090;2022-08-19T15:15:26;1.30;;;1.20;;
52902;SDS011;38765;53.176;7.090;2022-08-19T15:17:57;1.30;;;1.20;;
52902;SDS011;38765;53.176;7.090;2022-08-19T15:20:28;1.30;;;1.20;;
52902;SDS011;38765;53.176;7.090;2022-08-19T15:22:57;1.23;;;1.13;;
52902;SDS011;38765;53.176;7.090;2022-08-19T15:25:25;1.17;;;1.13;;
52902;SDS011;38765;53.176;7.090;2022-08-19T15:27:52;1.15;;;1.10;;
52902;SDS011;38765;53.176;7.090;2022-08-19T15:30:24;1.10;;;1.10;;
52902;SDS011;38765;53.176;7.090;2022-08-19T15:33:04;1.20;;;1.10;;
52902;SDS011;38765;53.176;7.090;2022-08-19T15:35:31;1.20;;;1.10;;
52902;SDS011;38765;53.176;7.090;2022-08-19T15:37:59;1.20;;;1.10;;
52902;SDS011;38765;53.176;7.090;2022-08-19T15:40:28;1.00;;;1.00;;
52902;SDS011;38765;53.176;7.090;2022-08-19T15:42:56;1.20;;;1.10;;
52902;SDS011;38765;53.176;7.090;2022-08-19T15:45:22;1.20;;;1.10;;
52902;SDS011;38765;53.176;7.090;2022-08-19T15:47:53;1.00;;;1.00;;
52902;SDS011;38765;53.176;7.090;2022-08-19T15:50:19;1.02;;;1.02;;
52902;SDS011;38765;53.176;7.090;2022-08-19T15:52:52;1.08;;;1.08;;
52902;SDS011;38765;53.176;7.090;2022-08-19T15:55:25;1.00;;;1.00;;
52902;SDS011;38765;53.176;7.090;2022-08-19T15:58:00;1.17;;;1.10;;
52902;SDS011;38765;53.176;7.090;2022-08-19T16:00:52;1.00;;;1.00;;
52902;SDS011;38765;53.176;7.090;2022-08-19T16:03:50;1.00;;;1.00;;
52902;SDS011;38765;53.176;7.090;2022-08-19T16:06:36;1.00;;;1.00;;
52902;SDS011;38765;53.176;7.090;2022-08-19T16:09:05;1.00;;;1.00;;
52902;SDS011;38765;53.176;7.090;2022-08-19T16:11:32;1.00;;;1.00;;
52902;SDS011;38765;53.176;7.090;2022-08-19T16:13:59;1.15;;;1.10;;
52902;SDS011;38765;53.176;7.090;2022-08-19T16:16:28;1.00;;;1.00;;
52902;SDS011;38765;53.176;7.090;2022-08-19T16:19:00;1.00;;;1.00;;
52902;SDS011;38765;53.176;7.090;2022-08-19T16:21:36;0.90;;;0.90;;
52902;SDS011;38765;53.176;7.090;2022-08-19T16:24:05;0.90;;;0.90;;
52902;SDS011;38765;53.176;7.090;2022-08-19T16:26:31;0.93;;;0.93;;
52902;SDS011;38765;53.176;7.090;2022-08-19T16:28:59;1.00;;;1.00;;
52902;SDS011;38765;53.176;7.090;2022-08-19T16:31:26;0.90;;;0.90;;
52902;SDS011;38765;53.176;7.090;2022-08-19T16:34:02;0.90;;;0.90;;
52902;SDS011;38765;53.176;7.090;2022-08-19T16:36:31;0.90;;;0.90;;
52902;SDS011;38765;53.176;7.090;2022-08-19T16:38:57;1.00;;;1.00;;
52902;SDS011;38765;53.176;7.090;2022-08-19T16:41:23;0.90;;;0.90;;
52902;SDS011;38765;53.176;7.090;2022-08-19T16:43:49;0.90;;;0.90;;
52902;SDS011;38765;53.176;7.090;2022-08-19T16:46:20;0.90;;;0.90;;
52902;SDS011;38765;53.176;7.090;2022-08-19T16:48:48;0.90;;;0.90;;
52902;SDS011;38765;53.176;7.090;2022-08-19T16:51:14;0.98;;;0.98;;
52902;SDS011;38765;53.176;7.090;2022-08-19T16:53:46;0.93;;;0.93;;
52902;SDS011;38765;53.176;7.090;2022-08-19T16:56:13;0.90;;;0.90;;
52902;SDS011;38765;53.176;7.090;2022-08-19T16:58:46;0.88;;;0.88;;
52902;SDS011;38765;53.176;7.090;2022-08-19T17:01:12;1.00;;;1.00;;
52902;SDS011;38765;53.176;7.090;2022-08-19T17:03:38;0.90;;;0.90;;
52902;SDS011;38765;53.176;7.090;2022-08-19T17:06:10;0.90;;;0.90;;
52902;SDS011;38765;53.176;7.090;2022-08-19T17:08:50;0.90;;;0.90;;
52902;SDS011;38765;53.176;7.090;2022-08-19T17:11:19;0.90;;;0.90;;
52902;SDS011;38765;53.176;7.090;2022-08-19T17:13:49;0.90;;;0.90;;
52902;SDS011;38765;53.176;7.090;2022-08-19T17:16:20;0.90;;;0.90;;
52902;SDS011;38765;53.176;7.090;2022-08-19T17:18:53;0.95;;;0.95;;
52902;SDS011;38765;53.176;7.090;2022-08-19T17:21:29;0.90;;;0.90;;
52902;SDS011;38765;53.176;7.090;2022-08-19T17:23:59;0.85;;;0.85;;
52902;SDS011;38765;53.176;7.090;2022-08-19T17:26:27;0.90;;;0.90;;
52902;SDS011;38765;53.176;7.090;2022-08-19T17:28:54;0.90;;;0.90;;
52902;SDS011;38765;53.176;7.090;2022-08-19T17:31:31;0.90;;;0.90;;
52902;SDS011;38765;53.176;7.090;2022-08-19T17:34:00;0.90;;;0.90;;
52902;SDS011;38765;53.176;7.090;2022-08-19T17:36:27;0.90;;;0.90;;
52902;SDS011;38765;53.176;7.090;2022-08-19T17:38:57;0.90;;;0.90;;
52902;SDS011;38765;53.176;7.090;2022-08-19T17:41:27;0.90;;;0.90;;
52902;SDS011;38765;53.176;7.090;2022-08-19T17:43:56;0.90;;;0.90;;
52902;SDS011;38765;53.176;7.090;2022-08-19T17:46:22;0.80;;;0.80;;
52902;SDS011;38765;53.176;7.090;2022-08-19T17:48:48;0.90;;;0.90;;
52902;SDS011;38765;53.176;7.090;2022-08-19T17:51:20;0.90;;;0.90;;
52902;SDS011;38765;53.176;7.090;2022-08-19T17:53:46;0.85;;;0.85;;
52902;SDS011;38765;53.176;7.090;2022-08-19T17:56:16;0.90;;;0.90;;
52902;SDS011;38765;53.176;7.090;2022-08-19T17:58:48;0.90;;;0.90;;
52902;SDS011;38765;53.176;7.090;2022-08-19T18:01:16;0.90;;;0.90;;
52902;SDS011;38765;53.176;7.090;2022-08-19T18:03:43;0.90;;;0.90;;
52902;SDS011;38765;53.176;7.090;2022-08-19T18:06:09;0.90;;;0.90;;
52902;SDS011;38765;53.176;7.090;2022-08-19T18:08:37;0.90;;;0.90;;
52902;SDS011;38765;53.176;7.090;2022-08-19T18:11:08;0.90;;;0.90;;
52902;SDS011;38765;53.176;7.090;2022-08-19T18:13:39;0.90;;;0.90;;
52902;SDS011;38765;53.176;7.090;2022-08-19T18:16:05;0.98;;;0.98;;
52902;SDS011;38765;53.176;7.090;2022-08-19T18:18:41;0.80;;;0.80;;
52902;SDS011;38765;53.176;7.090;2022-08-19T18:21:08;0.90;;;0.90;;
52902;SDS011;38765;53.176;7.090;2022-08-19T18:23:43;0.90;;;0.90;;
52902;SDS011;38765;53.176;7.090;2022-08-19T18:26:11;0.90;;;0.90;;
52902;SDS011;38765;53.176;7.090;2022-08-19T18:28:37;0.90;;;0.90;;
52902;SDS011;38765;53.176;7.090;2022-08-19T18:31:05;0.90;;;0.90;;
52902;SDS011;38765;53.176;7.090;2022-08-19T18:33:31;0.90;;;0.90;;
52902;SDS011;38765;53.176;7.090;2022-08-19T18:36:00;0.90;;;0.90;;
52902;SDS011;38765;53.176;7.090;2022-08-19T18:38:28;0.80;;;0.80;;
52902;SDS011;38765;53.176;7.090;2022-08-19T18:41:14;0.90;;;0.90;;
52902;SDS011;38765;53.176;7.090;2022-08-19T18:44:01;0.90;;;0.90;;
52902;SDS011;38765;53.176;7.090;2022-08-19T18:46:48;1.00;;;1.00;;
52902;SDS011;38765;53.176;7.090;2022-08-19T18:49:32;0.95;;;0.95;;
52902;SDS011;38765;53.176;7.090;2022-08-19T18:51:59;0.90;;;0.90;;
52902;SDS011;38765;53.176;7.090;2022-08-19T18:54:27;0.90;;;0.90;;
52902;SDS011;38765;53.176;7.090;2022-08-19T18:56:56;0.90;;;0.90;;
52902;SDS011;38765;53.176;7.090;2022-08-19T18:59:25;0.90;;;0.90;;
52902;SDS011;38765;53.176;7.090;2022-08-19T19:01:52;0.90;;;0.90;;
52902;SDS011;38765;53.176;7.090;2022-08-19T19:04:22;0.90;;;0.90;;
52902;SDS011;38765;53.176;7.090;2022-08-19T19:06:55;0.90;;;0.90;;
52902;SDS011;38765;53.176;7.090;2022-08-19T19:09:28;0.80;;;0.80;;
52902;SDS011;38765;53.176;7.090;2022-08-19T19:11:57;0.90;;;0.90;;
52902;SDS011;38765;53.176;7.090;2022-08-19T19:14:26;0.82;;;0.82;;
52902;SDS011;38765;53.176;7.090;2022-08-19T19:17:00;0.80;;;0.80;;
52902;SDS011;38765;53.176;7.090;2022-08-19T19:19:31;0.80;;;0.80;;
52902;SDS011;38765;53.176;7.090;2022-08-19T19:21:58;0.90;;;0.90;;
52902;SDS011;38765;53.176;7.090;2022-08-19T19:24:28;0.80;;;0.80;;
52902;SDS011;38765;53.176;7.090;2022-08-19T19:26:57;0.80;;;0.80;;
52902;SDS011;38765;53.176;7.090;2022-08-19T19:29:33;0.90;;;0.90;;
52902;SDS011;38765;53.176;7.090;2022-08-19T19:32:05;0.90;;;0.90;;
52902;SDS011;38765;53.176;7.090;2022-08-19T19:34:33;0.90;;;0.90;;
52902;SDS011;38765;53.176;7.090;2022-08-19T19:37:00;0.80;;;0.80;;
52902;SDS011;38765;53.176;7.090;2022-08-19T19:39:29;0.90;;;0.90;;
52902;SDS011;38765;53.176;7.090;2022-08-19T19:41:57;0.80;;;0.80;;
52902;SDS011;38765;53.176;7.090;2022-08-19T19:44:23;0.90;;;0.90;;
52902;SDS011;38765;53.176;7.090;2022-08-19T19:46:48;0.90;;;0.90;;
52902;SDS011;38765;53.176;7.090;2022-08-19T19:49:16;0.90;;;0.90;;
52902;SDS011;38765;53.176;7.090;2022-08-19T19:51:47;0.90;;;0.90;;
52902;SDS011;38765;53.176;7.090;2022-08-19T19:54:15;0.90;;;0.90;;
52902;SDS011;38765;53.176;7.090;2022-08-19T19:56:48;0.85;;;0.85;;
52902;SDS011;38765;53.176;7.090;2022-08-19T19:59:16;0.90;;;0.90;;
52902;SDS011;38765;53.176;7.090;2022-08-19T20:01:42;0.98;;;0.98;;
52902;SDS011;38765;53.176;7.090;2022-08-19T20:04:15;0.90;;;0.90;;
52902;SDS011;38765;53.176;7.090;2022-08-19T20:06:42;0.90;;;0.90;;
52902;SDS011;38765;53.176;7.090;2022-08-19T20:09:09;0.90;;;0.90;;
52902;SDS011;38765;53.176;7.090;2022-08-19T20:11:47;0.90;;;0.90;;
52902;SDS011;38765;53.176;7.090;2022-08-19T20:16:48;0.90;;;0.90;;
52902;SDS011;38765;53.176;7.090;2022-08-19T20:19:19;0.90;;;0.90;;
52902;SDS011;38765;53.176;7.090;2022-08-19T20:21:50;0.90;;;0.90;;
52902;SDS011;38765;53.176;7.090;2022-08-19T20:24:20;0.90;;;0.90;;
52902;SDS011;38765;53.176;7.090;2022-08-19T20:26:53;0.90;;;0.90;;
52902;SDS011;38765;53.176;7.090;2022-08-19T20:29:21;0.90;;;0.90;;
52902;SDS011;38765;53.176;7.090;2022-08-19T20:31:47;0.90;;;0.90;;
52902;SDS011;38765;53.176;7.090;2022-08-19T20:34:16;1.00;;;1.00;;
52902;SDS011;38765;53.176;7.090;2022-08-19T20:36:44;1.00;;;1.00;;
52902;SDS011;38765;53.176;7.090;2022-08-19T20:39:13;0.90;;;0.90;;
52902;SDS011;38765;53.176;7.090;2022-08-19T20:41:39;0.93;;;0.93;;
52902;SDS011;38765;53.176;7.090;2022-08-19T20:44:09;0.88;;;0.88;;
52902;SDS011;38765;53.176;7.090;2022-08-19T20:46:38;1.00;;;1.00;;
52902;SDS011;38765;53.176;7.090;2022-08-19T20:49:06;0.90;;;0.90;;
52902;SDS011;38765;53.176;7.090;2022-08-19T20:51:35;0.90;;;0.90;;
52902;SDS011;38765;53.176;7.090;2022-08-19T20:54:13;1.00;;;1.00;;
52902;SDS011;38765;53.176;7.090;2022-08-19T20:56:42;1.00;;;1.00;;
52902;SDS011;38765;53.176;7.090;2022-08-19T20:59:07;0.90;;;0.90;;
52902;SDS011;38765;53.176;7.090;2022-08-19T21:04:09;0.98;;;0.98;;
52902;SDS011;38765;53.176;7.090;2022-08-19T21:06:37;1.02;;;1.02;;
52902;SDS011;38765;53.176;7.090;2022-08-19T21:09:06;0.90;;;0.90;;
52902;SDS011;38765;53.176;7.090;2022-08-19T21:11:32;0.98;;;0.98;;
52902;SDS011;38765;53.176;7.090;2022-08-19T21:13:59;1.00;;;1.00;;
52902;SDS011;38765;53.176;7.090;2022-08-19T21:16:27;1.00;;;1.00;;
52902;SDS011;38765;53.176;7.090;2022-08-19T21:18:56;1.00;;;1.00;;
52902;SDS011;38765;53.176;7.090;2022-08-19T21:21:25;1.08;;;1.08;;
52902;SDS011;38765;53.176;7.090;2022-08-19T21:24:03;0.90;;;0.90;;
52902;SDS011;38765;53.176;7.090;2022-08-19T21:26:29;0.98;;;0.98;;
52902;SDS011;38765;53.176;7.090;2022-08-19T21:28:59;1.00;;;1.00;;
52902;SDS011;38765;53.176;7.090;2022-08-19T21:31:28;1.00;;;1.00;;
52902;SDS011;38765;53.176;7.090;2022-08-19T21:33:59;1.00;;;1.00;;
52902;SDS011;38765;53.176;7.090;2022-08-19T21:36:27;0.93;;;0.93;;
52902;SDS011;38765;53.176;7.090;2022-08-19T21:39:00;0.90;;;0.90;;
52902;SDS011;38765;53.176;7.090;2022-08-19T21:41:26;1.00;;;1.00;;
52902;SDS011;38765;53.176;7.090;2022-08-19T21:43:52;0.98;;;0.98;;
52902;SDS011;38765;53.176;7.090;2022-08-19T21:46:18;1.00;;;1.00;;
52902;SDS011;38765;53.176;7.090;2022-08-19T21:48:46;1.00;;;1.00;;
52902;SDS011;38765;53.176;7.090;2022-08-19T21:51:17;1.00;;;1.00;;
52902;SDS011;38765;53.176;7.090;2022-08-19T21:53:43;1.00;;;1.00;;
52902;SDS011;38765;53.176;7.090;2022-08-19T21:56:11;1.00;;;1.00;;
52902;SDS011;38765;53.176;7.090;2022-08-19T21:58:40;1.00;;;1.00;;
52902;SDS011;38765;53.176;7.090;2022-08-19T22:01:06;1.00;;;1.00;;
52902;SDS011;38765;53.176;7.090;2022-08-19T22:03:35;0.93;;;0.93;;
52902;SDS011;38765;53.176;7.090;2022-08-19T22:06:02;1.00;;;1.00;;
52902;SDS011;38765;53.176;7.090;2022-08-19T22:08:33;1.00;;;1.00;;
52902;SDS011;38765;53.176;7.090;2022-08-19T22:11:02;1.00;;;1.00;;
52902;SDS011;38765;53.176;7.090;2022-08-19T22:13:29;1.00;;;1.00;;
52902;SDS011;38765;53.176;7.090;2022-08-19T22:16:02;1.00;;;1.00;;
52902;SDS011;38765;53.176;7.090;2022-08-19T22:18:38;1.10;;;1.10;;
52902;SDS011;38765;53.176;7.090;2022-08-19T22:21:08;1.00;;;1.00;;
52902;SDS011;38765;53.176;7.090;2022-08-19T22:23:34;1.00;;;1.00;;
52902;SDS011;38765;53.176;7.090;2022-08-19T22:26:02;1.10;;;1.05;;
52902;SDS011;38765;53.176;7.090;2022-08-19T22:28:28;1.13;;;1.02;;
52902;SDS011;38765;53.176;7.090;2022-08-19T22:30:57;1.17;;;1.10;;
52902;SDS011;38765;53.176;7.090;2022-08-19T22:33:25;1.20;;;1.10;;
52902;SDS011;38765;53.176;7.090;2022-08-19T22:35:54;1.10;;;1.10;;
52902;SDS011;38765;53.176;7.090;2022-08-19T22:38:25;1.10;;;1.10;;